createdAt,value
2024-04-30T00:00:50.523Z,16.50
2024-04-30T00:01:51.286Z,16.50
2024-04-30T00:02:51.932Z,16.49
2024-04-30T00:03:52.791Z,16.46
2024-04-30T00:04:53.568Z,16.47
2024-04-30T00:05:54.149Z,16.44
2024-04-30T00:06:54.950Z,16.44
2024-04-30T00:07:55.652Z,16.43
2024-04-30T00:08:56.327Z,16.43
2024-04-30T00:09:57.304Z,16.41
2024-04-30T00:10:57.640Z,16.43
2024-04-30T00:11:58.426Z,16.43
2024-04-30T00:12:59.187Z,16.43
2024-04-30T00:13:59.892Z,16.43
2024-04-30T00:15:00.584Z,16.43
2024-04-30T00:16:01.307Z,16.41
2024-04-30T00:17:02.107Z,16.41
2024-04-30T00:18:02.944Z,16.37
2024-04-30T00:19:03.741Z,16.37
2024-04-30T00:20:04.390Z,16.37
2024-04-30T00:21:04.985Z,16.39
2024-04-30T00:22:05.733Z,16.39
2024-04-30T00:23:06.508Z,16.36
2024-04-30T00:24:07.233Z,16.39
2024-04-30T00:25:08.006Z,16.36
2024-04-30T00:26:08.654Z,16.34
2024-04-30T00:27:09.393Z,16.32
2024-04-30T00:28:10.133Z,16.34
2024-04-30T00:29:10.932Z,16.28
2024-04-30T00:30:11.612Z,16.28
2024-04-30T00:31:12.398Z,16.25
2024-04-30T00:32:13.101Z,16.28
2024-04-30T00:33:13.899Z,16.26
2024-04-30T00:34:14.635Z,16.29
2024-04-30T00:35:16.072Z,16.29
2024-04-30T00:36:15.859Z,16.31
2024-04-30T00:37:16.577Z,16.29
2024-04-30T00:38:17.315Z,16.29
2024-04-30T00:39:18.125Z,16.28
2024-04-30T00:40:19.003Z,16.32
2024-04-30T00:41:19.610Z,16.29
2024-04-30T00:42:20.289Z,16.26
2024-04-30T00:43:21.036Z,16.25
2024-04-30T00:44:21.694Z,16.26
2024-04-30T00:45:22.507Z,16.25
2024-04-30T00:46:23.249Z,16.24
2024-04-30T00:47:23.950Z,16.25
2024-04-30T00:48:27.341Z,16.22
2024-04-30T00:49:25.329Z,16.22
2024-04-30T00:50:26.125Z,16.22
2024-04-30T00:51:26.998Z,16.21
2024-04-30T00:52:27.862Z,16.18
2024-04-30T00:53:28.458Z,16.22
2024-04-30T00:54:29.209Z,16.21
2024-04-30T00:55:30.162Z,16.17
2024-04-30T00:56:30.997Z,16.17
2024-04-30T00:57:31.717Z,16.17
2024-04-30T00:58:32.460Z,16.17
2024-04-30T00:59:33.078Z,16.16
2024-04-30T01:00:33.780Z,16.12
2024-04-30T01:01:34.666Z,16.16
2024-04-30T01:02:35.052Z,16.10
2024-04-30T01:03:35.748Z,16.13
2024-04-30T01:04:36.330Z,16.16
2024-04-30T01:05:37.099Z,16.16
2024-04-30T01:06:37.916Z,16.16
2024-04-30T01:07:38.645Z,16.13
2024-04-30T01:08:39.295Z,16.13
2024-04-30T01:09:39.973Z,16.16
2024-04-30T01:10:40.882Z,16.16
2024-04-30T01:11:41.240Z,16.18
2024-04-30T01:12:42.011Z,16.17
2024-04-30T01:13:42.774Z,16.16
2024-04-30T01:14:43.539Z,16.16
2024-04-30T01:15:44.273Z,16.17
2024-04-30T01:16:45.080Z,16.16
2024-04-30T01:17:46.160Z,16.12
2024-04-30T01:18:46.419Z,16.10
2024-04-30T01:19:47.167Z,16.12
2024-04-30T01:20:47.894Z,16.09
2024-04-30T01:21:48.627Z,16.09
2024-04-30T01:22:49.288Z,16.08
2024-04-30T01:23:49.971Z,16.05
2024-04-30T01:24:50.719Z,16.00
2024-04-30T01:25:51.232Z,16.00
2024-04-30T01:26:52.085Z,15.96
2024-04-30T01:27:52.882Z,15.94
2024-04-30T01:28:53.565Z,15.91
2024-04-30T01:29:54.279Z,15.91
2024-04-30T01:30:55.104Z,15.85
2024-04-30T01:31:55.933Z,15.88
2024-04-30T01:32:56.762Z,15.88
2024-04-30T01:33:57.361Z,15.88
2024-04-30T01:34:58.041Z,15.87
2024-04-30T01:35:58.722Z,15.81
2024-04-30T01:36:59.509Z,15.84
2024-04-30T01:38:00.195Z,15.80
2024-04-30T01:39:00.976Z,15.75
2024-04-30T01:40:01.912Z,15.72
2024-04-30T01:41:02.675Z,15.67
2024-04-30T01:42:03.333Z,15.66
2024-04-30T01:43:04.254Z,15.65
2024-04-30T01:44:05.054Z,15.62
2024-04-30T01:45:05.858Z,15.59
2024-04-30T01:46:06.613Z,15.57
2024-04-30T01:47:07.408Z,15.52
2024-04-30T01:48:08.230Z,15.48
2024-04-30T01:49:08.844Z,15.48
2024-04-30T01:50:09.489Z,15.47
2024-04-30T01:51:10.426Z,15.48
2024-04-30T01:52:11.208Z,15.45
2024-04-30T01:53:11.942Z,15.44
2024-04-30T01:54:12.725Z,15.41
2024-04-30T01:55:13.555Z,15.44
2024-04-30T01:56:14.278Z,15.45
2024-04-30T01:57:15.011Z,15.47
2024-04-30T01:58:15.970Z,15.47
2024-04-30T01:59:16.541Z,15.45
2024-04-30T02:00:17.242Z,15.47
2024-04-30T02:01:18.028Z,15.45
2024-04-30T02:02:18.664Z,15.47
2024-04-30T02:03:19.463Z,15.45
2024-04-30T02:04:20.196Z,15.47
2024-04-30T02:05:25.030Z,15.45
2024-04-30T02:06:21.499Z,15.43
2024-04-30T02:07:22.223Z,15.43
2024-04-30T02:08:22.918Z,15.45
2024-04-30T02:09:23.596Z,15.41
2024-04-30T02:10:24.325Z,15.44
2024-04-30T02:11:25.073Z,15.41
2024-04-30T02:12:25.690Z,15.39
2024-04-30T02:13:26.568Z,15.39
2024-04-30T02:14:26.884Z,15.36
2024-04-30T02:15:27.591Z,15.32
2024-04-30T02:16:28.454Z,15.27
2024-04-30T02:17:29.303Z,15.26
2024-04-30T02:18:29.922Z,15.26
2024-04-30T02:19:30.701Z,15.25
2024-04-30T02:20:31.492Z,15.23
2024-04-30T02:21:32.208Z,15.22
2024-04-30T02:22:33.036Z,15.18
2024-04-30T02:23:33.699Z,15.17
2024-04-30T02:24:34.403Z,15.19
2024-04-30T02:25:35.318Z,15.14
2024-04-30T02:26:37.085Z,15.15
2024-04-30T02:27:36.776Z,15.14
2024-04-30T02:28:37.604Z,15.14
2024-04-30T02:29:38.299Z,15.11
2024-04-30T02:30:39.124Z,15.12
2024-04-30T02:31:39.935Z,15.12
2024-04-30T02:32:40.787Z,15.11
2024-04-30T02:33:41.641Z,15.10
2024-04-30T02:34:42.347Z,15.10
2024-04-30T02:35:43.113Z,15.08
2024-04-30T02:36:43.970Z,15.05
2024-04-30T02:37:44.641Z,15.05
2024-04-30T02:38:45.357Z,15.05
2024-04-30T02:39:46.099Z,15.08
2024-04-30T02:40:46.809Z,15.02
2024-04-30T02:41:47.486Z,14.99
2024-04-30T02:42:48.160Z,14.92
2024-04-30T02:43:48.904Z,14.92
2024-04-30T02:44:49.713Z,14.89
2024-04-30T02:45:50.527Z,14.89
2024-04-30T02:46:51.248Z,14.86
2024-04-30T02:47:51.963Z,14.86
2024-04-30T02:48:52.737Z,14.78
2024-04-30T02:49:53.550Z,14.77
2024-04-30T02:50:54.381Z,14.77
2024-04-30T02:51:55.225Z,14.73
2024-04-30T02:52:55.962Z,14.74
2024-04-30T02:53:56.846Z,14.81
2024-04-30T02:54:57.626Z,14.79
2024-04-30T02:55:58.445Z,14.79
2024-04-30T02:56:59.153Z,14.86
2024-04-30T02:58:00.075Z,14.79
2024-04-30T02:59:00.729Z,14.81
2024-04-30T03:00:01.740Z,14.79
2024-04-30T03:01:02.481Z,14.82
2024-04-30T03:02:03.048Z,14.78
2024-04-30T03:03:03.708Z,14.77
2024-04-30T03:04:04.645Z,14.77
2024-04-30T03:05:05.080Z,14.77
2024-04-30T03:06:05.747Z,14.78
2024-04-30T03:07:06.517Z,14.78
2024-04-30T03:08:07.292Z,14.77
2024-04-30T03:09:08.117Z,14.73
2024-04-30T03:10:08.851Z,14.71
2024-04-30T03:11:09.626Z,14.67
2024-04-30T03:12:10.205Z,14.63
2024-04-30T03:13:10.921Z,14.66
2024-04-30T03:14:11.586Z,14.61
2024-04-30T03:15:15.443Z,14.55
2024-04-30T03:16:13.355Z,14.52
2024-04-30T03:17:14.054Z,14.52
2024-04-30T03:18:14.766Z,14.49
2024-04-30T03:19:15.574Z,14.49
2024-04-30T03:20:16.242Z,14.49
2024-04-30T03:21:16.953Z,14.51
2024-04-30T03:22:17.698Z,14.51
2024-04-30T03:23:18.335Z,14.51
2024-04-30T03:24:19.004Z,14.52
2024-04-30T03:25:19.785Z,14.52
2024-04-30T03:26:20.567Z,14.51
2024-04-30T03:27:21.317Z,14.53
2024-04-30T03:28:22.087Z,14.52
2024-04-30T03:29:22.758Z,14.49
2024-04-30T03:30:23.534Z,14.45
2024-04-30T03:31:24.258Z,14.40
2024-04-30T03:32:25.634Z,14.40
2024-04-30T03:33:25.924Z,14.44
2024-04-30T03:34:26.660Z,14.38
2024-04-30T03:35:27.758Z,14.40
2024-04-30T03:36:27.672Z,14.37
2024-04-30T03:37:28.338Z,14.36
2024-04-30T03:38:29.130Z,14.33
2024-04-30T03:39:29.873Z,14.33
2024-04-30T03:40:30.595Z,14.31
2024-04-30T03:41:31.333Z,14.33
2024-04-30T03:42:31.901Z,14.34
2024-04-30T03:43:32.871Z,14.37
2024-04-30T03:44:33.346Z,14.40
2024-04-30T03:45:34.606Z,14.40
2024-04-30T03:46:35.044Z,14.38
2024-04-30T03:47:35.539Z,14.38
2024-04-30T03:48:36.040Z,14.41
2024-04-30T03:49:36.979Z,14.41
2024-04-30T03:50:37.628Z,14.43
2024-04-30T03:51:38.392Z,14.41
2024-04-30T03:52:39.131Z,14.40
2024-04-30T03:53:39.988Z,14.41
2024-04-30T03:54:40.562Z,14.43
2024-04-30T03:55:41.174Z,14.41
2024-04-30T03:56:41.735Z,14.41
2024-04-30T03:57:42.344Z,14.41
2024-04-30T03:58:43.159Z,14.37
2024-04-30T03:59:43.890Z,14.33
2024-04-30T04:00:44.610Z,14.31
2024-04-30T04:01:45.244Z,14.30
2024-04-30T04:02:45.851Z,14.31
2024-04-30T04:03:46.452Z,14.30
2024-04-30T04:04:47.022Z,14.28
2024-04-30T04:05:47.564Z,14.26
2024-04-30T04:06:48.656Z,14.28
2024-04-30T04:07:48.746Z,14.28
2024-04-30T04:08:49.559Z,14.28
2024-04-30T04:09:50.147Z,14.31
2024-04-30T04:10:50.743Z,14.33
2024-04-30T04:11:53.845Z,14.34
2024-04-30T04:12:54.484Z,14.38
2024-04-30T04:13:54.499Z,14.38
2024-04-30T04:14:55.171Z,14.44
2024-04-30T04:15:56.677Z,14.43
2024-04-30T04:17:01.315Z,14.48
2024-04-30T04:17:57.900Z,14.49
2024-04-30T04:18:56.660Z,14.52
2024-04-30T04:19:57.512Z,14.53
2024-04-30T04:20:58.140Z,14.55
2024-04-30T04:21:58.816Z,14.58
2024-04-30T04:22:59.398Z,14.58
2024-04-30T04:23:59.997Z,14.59
2024-04-30T04:25:00.682Z,14.58
2024-04-30T04:26:01.178Z,14.59
2024-04-30T04:27:01.785Z,14.61
2024-04-30T04:28:02.497Z,14.59
2024-04-30T04:29:03.050Z,14.56
2024-04-30T04:30:03.633Z,14.59
2024-04-30T04:31:04.280Z,14.59
2024-04-30T04:32:04.913Z,14.61
2024-04-30T04:33:05.737Z,14.59
2024-04-30T04:34:06.436Z,14.59
2024-04-30T04:35:09.047Z,14.59
2024-04-30T04:36:10.607Z,14.66
2024-04-30T04:37:10.598Z,14.70
2024-04-30T04:38:12.748Z,14.70
2024-04-30T04:39:10.498Z,14.71
2024-04-30T04:40:11.214Z,14.70
2024-04-30T04:41:11.710Z,14.70
2024-04-30T04:42:12.485Z,14.67
2024-04-30T04:43:13.399Z,14.66
2024-04-30T04:44:13.960Z,14.66
2024-04-30T04:45:14.572Z,14.67
2024-04-30T04:46:15.178Z,14.68
2024-04-30T04:47:15.817Z,14.67
2024-04-30T04:48:16.408Z,14.68
2024-04-30T04:49:16.985Z,14.70
2024-04-30T04:50:17.575Z,14.67
2024-04-30T04:51:18.226Z,14.70
2024-04-30T04:52:18.963Z,14.71
2024-04-30T04:53:19.527Z,14.70
2024-04-30T04:54:20.151Z,14.70
2024-04-30T04:55:20.896Z,14.73
2024-04-30T04:56:21.474Z,14.77
2024-04-30T04:57:22.187Z,14.79
2024-04-30T04:58:22.943Z,14.74
2024-04-30T04:59:23.499Z,14.77
2024-04-30T05:00:24.335Z,14.74
2024-04-30T05:01:25.118Z,14.74
2024-04-30T05:02:25.827Z,14.73
2024-04-30T05:03:26.467Z,14.78
2024-04-30T05:04:27.150Z,14.77
2024-04-30T05:05:27.573Z,14.78
2024-04-30T05:06:28.369Z,14.82
2024-04-30T05:07:29.003Z,14.86
2024-04-30T05:08:29.533Z,14.86
2024-04-30T05:09:30.135Z,14.87
2024-04-30T05:10:30.738Z,14.90
2024-04-30T05:11:31.394Z,14.90
2024-04-30T05:12:32.061Z,14.93
2024-04-30T05:13:32.855Z,14.93
2024-04-30T05:14:33.359Z,14.97
2024-04-30T05:15:34.057Z,14.99
2024-04-30T05:16:34.758Z,15.02
2024-04-30T05:17:35.336Z,15.04
2024-04-30T05:18:35.842Z,15.08
2024-04-30T05:19:36.521Z,15.11
2024-04-30T05:20:37.266Z,15.14
2024-04-30T05:21:37.975Z,15.17
2024-04-30T05:22:42.272Z,15.17
2024-04-30T05:23:39.554Z,15.22
2024-04-30T05:24:40.432Z,15.22
2024-04-30T05:25:41.228Z,15.26
2024-04-30T05:26:41.774Z,15.27
2024-04-30T05:27:42.354Z,15.29
2024-04-30T05:28:43.132Z,15.27
2024-04-30T05:29:43.887Z,15.29
2024-04-30T05:30:44.578Z,15.29
2024-04-30T05:31:45.249Z,15.29
2024-04-30T05:32:46.012Z,15.29
2024-04-30T05:33:46.511Z,15.33
2024-04-30T05:34:47.141Z,15.32
2024-04-30T05:35:47.699Z,15.37
2024-04-30T05:36:48.434Z,15.41
2024-04-30T05:37:49.123Z,15.41
2024-04-30T05:38:49.653Z,15.44
2024-04-30T05:39:50.294Z,15.47
2024-04-30T05:40:50.908Z,15.50
2024-04-30T05:41:51.635Z,15.51
2024-04-30T05:42:52.262Z,15.54
2024-04-30T05:43:53.416Z,15.55
2024-04-30T05:44:53.804Z,15.62
2024-04-30T05:45:54.592Z,15.65
2024-04-30T05:46:55.207Z,15.66
2024-04-30T05:47:56.701Z,15.67
2024-04-30T05:48:56.807Z,15.67
2024-04-30T05:49:57.406Z,15.69
2024-04-30T05:50:57.967Z,15.73
2024-04-30T05:51:58.698Z,15.76
2024-04-30T05:52:59.421Z,15.72
2024-04-30T05:53:59.998Z,15.72
2024-04-30T05:55:00.575Z,15.69
2024-04-30T05:56:01.151Z,15.67
2024-04-30T05:57:01.771Z,15.67
2024-04-30T05:58:02.518Z,15.65
2024-04-30T05:59:03.292Z,15.69
2024-04-30T06:00:03.972Z,15.69
2024-04-30T06:01:04.806Z,15.70
2024-04-30T06:02:05.278Z,15.70
2024-04-30T06:03:05.922Z,15.72
2024-04-30T06:04:06.623Z,15.73
2024-04-30T06:05:07.255Z,15.76
2024-04-30T06:06:07.614Z,15.78
2024-04-30T06:07:08.424Z,15.85
2024-04-30T06:08:09.222Z,15.85
2024-04-30T06:09:09.997Z,15.90
2024-04-30T06:10:10.742Z,15.91
2024-04-30T06:11:11.302Z,15.96
2024-04-30T06:12:11.943Z,16.00
2024-04-30T06:13:12.662Z,16.02
2024-04-30T06:14:13.470Z,16.06
2024-04-30T06:15:14.133Z,16.00
2024-04-30T06:16:14.740Z,16.00
2024-04-30T06:17:15.344Z,16.00
2024-04-30T06:18:16.163Z,16.06
2024-04-30T06:19:16.977Z,16.09
2024-04-30T06:20:17.629Z,16.09
2024-04-30T06:21:27.001Z,16.09
2024-04-30T06:22:18.958Z,16.12
2024-04-30T06:23:19.541Z,16.16
2024-04-30T06:24:20.118Z,16.18
2024-04-30T06:25:20.727Z,16.18
2024-04-30T06:26:21.332Z,16.21
2024-04-30T06:27:21.920Z,16.25
2024-04-30T06:28:22.655Z,16.25
2024-04-30T06:29:23.200Z,16.29
2024-04-30T06:30:25.504Z,16.31
2024-04-30T06:31:27.240Z,16.32
2024-04-30T06:32:26.825Z,16.29
2024-04-30T06:33:27.869Z,16.36
2024-04-30T06:34:28.187Z,16.32
2024-04-30T06:35:29.666Z,16.34
2024-04-30T06:36:30.925Z,16.39
2024-04-30T06:37:30.523Z,16.41
2024-04-30T06:38:32.389Z,16.43
2024-04-30T06:39:31.306Z,16.43
2024-04-30T06:40:31.183Z,16.44
2024-04-30T06:41:31.717Z,16.46
2024-04-30T06:42:32.333Z,16.49
2024-04-30T06:43:32.931Z,16.51
2024-04-30T06:44:33.487Z,16.59
2024-04-30T06:45:34.109Z,16.64
2024-04-30T06:46:34.910Z,16.68
2024-04-30T06:47:36.278Z,16.73
2024-04-30T06:48:36.332Z,16.76
2024-04-30T06:49:36.605Z,16.76
2024-04-30T06:50:39.897Z,16.76
2024-04-30T06:51:39.733Z,16.82
2024-04-30T06:52:40.549Z,16.82
2024-04-30T06:53:40.367Z,16.82
2024-04-30T06:54:42.241Z,16.83
2024-04-30T06:55:42.148Z,16.86
2024-04-30T06:56:43.209Z,16.92
2024-04-30T06:57:45.082Z,16.99
2024-04-30T06:58:45.191Z,17.02
2024-04-30T06:59:45.209Z,17.07
2024-04-30T07:00:44.292Z,17.14
2024-04-30T07:01:44.923Z,17.14
2024-04-30T07:02:45.510Z,17.22
2024-04-30T07:03:46.292Z,17.28
2024-04-30T07:04:46.942Z,17.32
2024-04-30T07:05:47.646Z,17.39
2024-04-30T07:06:48.371Z,17.42
2024-04-30T07:07:48.956Z,17.53
2024-04-30T07:08:49.620Z,17.57
2024-04-30T07:09:50.190Z,17.65
2024-04-30T07:10:50.902Z,17.69
2024-04-30T07:11:51.390Z,17.76
2024-04-30T07:12:52.126Z,17.78
2024-04-30T07:13:52.851Z,17.84
2024-04-30T07:14:53.432Z,17.87
2024-04-30T07:15:54.012Z,17.91
2024-04-30T07:17:02.510Z,17.95
2024-04-30T07:17:55.257Z,18.00
2024-04-30T07:18:55.826Z,18.03
2024-04-30T07:19:56.474Z,18.09
2024-04-30T07:20:57.180Z,18.18
2024-04-30T07:21:57.852Z,18.28
2024-04-30T07:22:58.579Z,18.33
2024-04-30T07:23:59.204Z,18.36
2024-04-30T07:24:59.915Z,18.42
2024-04-30T07:26:00.570Z,18.48
2024-04-30T07:27:01.723Z,18.51
2024-04-30T07:28:01.946Z,18.58
2024-04-30T07:29:02.513Z,18.60
2024-04-30T07:30:03.113Z,18.61
2024-04-30T07:31:03.715Z,18.67
2024-04-30T07:32:04.337Z,18.64
2024-04-30T07:33:05.019Z,18.64
2024-04-30T07:34:05.608Z,18.66
2024-04-30T07:35:06.793Z,18.70
2024-04-30T07:36:07.007Z,18.71
2024-04-30T07:37:08.250Z,18.78
2024-04-30T07:38:08.453Z,18.85
2024-04-30T07:39:09.214Z,18.94
2024-04-30T07:40:09.833Z,19.00
2024-04-30T07:41:10.412Z,19.11
2024-04-30T07:42:10.985Z,19.15
2024-04-30T07:43:11.706Z,19.27
2024-04-30T07:44:14.076Z,19.30
2024-04-30T07:45:13.252Z,19.37
2024-04-30T07:46:13.919Z,19.44
2024-04-30T07:47:14.526Z,19.49
2024-04-30T07:48:15.215Z,19.53
2024-04-30T07:49:15.753Z,19.56
2024-04-30T07:50:16.424Z,19.62
2024-04-30T07:51:17.012Z,19.66
2024-04-30T07:52:18.210Z,19.77
2024-04-30T07:53:18.296Z,19.84
2024-04-30T07:54:19.006Z,19.89
2024-04-30T07:55:19.668Z,19.96
2024-04-30T07:56:20.236Z,20.03
2024-04-30T07:57:21.016Z,20.11
2024-04-30T07:58:21.726Z,20.18
2024-04-30T07:59:22.407Z,20.24
2024-04-30T08:00:23.180Z,20.33
2024-04-30T08:01:23.797Z,20.36
2024-04-30T08:02:24.532Z,20.39
2024-04-30T08:03:25.128Z,20.44
2024-04-30T08:04:25.925Z,20.50
2024-04-30T08:05:26.804Z,20.59
2024-04-30T08:06:27.161Z,20.67
2024-04-30T08:07:27.756Z,20.68
2024-04-30T08:08:28.875Z,20.73
2024-04-30T08:09:29.215Z,20.80
2024-04-30T08:10:29.848Z,20.82
2024-04-30T08:11:30.589Z,20.88
2024-04-30T08:12:31.460Z,20.88
2024-04-30T08:13:32.226Z,20.93
2024-04-30T08:14:37.786Z,20.88
2024-04-30T08:15:38.530Z,20.89
2024-04-30T08:16:34.239Z,20.89
2024-04-30T08:17:35.881Z,20.89
2024-04-30T08:18:35.386Z,20.89
2024-04-30T08:19:36.217Z,20.88
2024-04-30T08:20:36.735Z,20.95
2024-04-30T08:21:37.322Z,20.96
2024-04-30T08:22:38.014Z,21.00
2024-04-30T08:23:38.542Z,21.01
2024-04-30T08:24:39.261Z,21.01
2024-04-30T08:25:40.057Z,20.96
2024-04-30T08:26:40.623Z,20.98
2024-04-30T08:27:42.851Z,21.03
2024-04-30T08:28:43.782Z,21.05
2024-04-30T08:29:44.094Z,21.07
2024-04-30T08:30:44.362Z,21.10
2024-04-30T08:31:45.013Z,21.08
2024-04-30T08:32:45.686Z,21.07
2024-04-30T08:33:46.273Z,21.03
2024-04-30T08:34:46.830Z,21.03
2024-04-30T08:35:47.454Z,21.03
2024-04-30T08:36:48.211Z,21.00
2024-04-30T08:37:54.953Z,21.01
2024-04-30T08:38:49.543Z,21.04
2024-04-30T08:39:50.051Z,21.05
2024-04-30T08:40:50.791Z,21.05
2024-04-30T08:41:51.253Z,21.03
2024-04-30T08:42:51.880Z,21.04
2024-04-30T08:43:52.539Z,21.01
2024-04-30T08:44:53.247Z,21.01
2024-04-30T08:45:53.904Z,21.00
2024-04-30T08:46:54.622Z,21.01
2024-04-30T08:47:55.175Z,21.03
2024-04-30T08:48:55.711Z,21.05
2024-04-30T08:50:01.336Z,21.04
2024-04-30T08:50:58.057Z,21.08
2024-04-30T08:51:57.891Z,21.10
2024-04-30T08:52:59.221Z,21.14
2024-04-30T08:53:59.496Z,21.20
2024-04-30T08:55:01.841Z,21.26
2024-04-30T08:56:01.795Z,21.32
2024-04-30T08:57:01.422Z,21.44
2024-04-30T08:58:02.173Z,21.51
2024-04-30T08:59:02.768Z,21.62
2024-04-30T09:00:04.277Z,21.63
2024-04-30T09:01:04.613Z,21.72
2024-04-30T09:02:04.885Z,21.80
2024-04-30T09:03:05.656Z,21.89
2024-04-30T09:04:06.197Z,21.99
2024-04-30T09:05:06.790Z,22.08
2024-04-30T09:06:07.571Z,22.19
2024-04-30T09:07:08.187Z,22.33
2024-04-30T09:08:08.749Z,22.38
2024-04-30T09:09:09.478Z,22.44
2024-04-30T09:10:10.304Z,22.53
2024-04-30T09:11:11.181Z,22.58
2024-04-30T09:12:11.719Z,22.67
2024-04-30T09:13:12.474Z,22.77
2024-04-30T09:14:13.063Z,22.81
2024-04-30T09:15:13.654Z,22.88
2024-04-30T09:16:14.304Z,22.95
2024-04-30T09:17:14.843Z,23.01
2024-04-30T09:18:15.523Z,23.07
2024-04-30T09:19:16.078Z,23.14
2024-04-30T09:20:16.635Z,23.21
2024-04-30T09:21:17.745Z,23.26
2024-04-30T09:22:17.872Z,23.34
2024-04-30T09:23:18.588Z,23.40
2024-04-30T09:24:19.163Z,23.48
2024-04-30T09:25:19.928Z,23.48
2024-04-30T09:26:21.202Z,23.47
2024-04-30T09:27:21.419Z,23.49
2024-04-30T09:28:22.211Z,23.52
2024-04-30T09:29:22.761Z,23.54
2024-04-30T09:30:23.443Z,23.54
2024-04-30T09:31:24.054Z,23.40
2024-04-30T09:32:24.757Z,23.34
2024-04-30T09:33:25.325Z,23.34
2024-04-30T09:34:26.069Z,23.36
2024-04-30T09:35:26.575Z,23.40
2024-04-30T09:36:27.173Z,23.42
2024-04-30T09:37:27.830Z,23.47
2024-04-30T09:38:28.398Z,23.48
2024-04-30T09:39:29.169Z,23.49
2024-04-30T09:40:29.744Z,23.52
2024-04-30T09:41:30.539Z,23.54
2024-04-30T09:42:31.048Z,23.55
2024-04-30T09:43:31.661Z,23.54
2024-04-30T09:44:32.219Z,23.55
2024-04-30T09:45:33.114Z,23.62
2024-04-30T09:46:33.863Z,23.63
2024-04-30T09:47:34.397Z,23.62
2024-04-30T09:48:35.035Z,23.63
2024-04-30T09:49:35.638Z,23.64
2024-04-30T09:50:36.191Z,23.66
2024-04-30T09:51:37.295Z,23.70
2024-04-30T09:52:37.864Z,23.73
2024-04-30T09:53:38.306Z,23.79
2024-04-30T09:54:39.726Z,23.81
2024-04-30T09:55:40.070Z,23.81
2024-04-30T09:56:40.601Z,23.84
2024-04-30T09:57:41.296Z,23.84
2024-04-30T09:58:42.071Z,23.84
2024-04-30T09:59:42.636Z,23.82
2024-04-30T10:00:43.281Z,23.86
2024-04-30T10:01:44.004Z,23.89
2024-04-30T10:02:44.546Z,23.94
2024-04-30T10:03:45.735Z,23.99
2024-04-30T10:04:46.010Z,24.00
2024-04-30T10:05:46.790Z,24.01
2024-04-30T10:06:49.779Z,24.03
2024-04-30T10:07:48.012Z,24.04
2024-04-30T10:08:48.712Z,24.09
2024-04-30T10:09:49.280Z,24.09
2024-04-30T10:10:50.013Z,24.07
2024-04-30T10:11:50.461Z,24.09
2024-04-30T10:12:51.057Z,24.01
2024-04-30T10:13:51.883Z,24.00
2024-04-30T10:14:52.424Z,23.94
2024-04-30T10:15:53.015Z,23.89
2024-04-30T10:16:53.750Z,23.84
2024-04-30T10:17:54.360Z,23.82
2024-04-30T10:18:55.033Z,23.79
2024-04-30T10:19:55.731Z,23.81
2024-04-30T10:20:56.323Z,23.84
2024-04-30T10:21:56.989Z,23.86
2024-04-30T10:22:57.559Z,23.85
2024-04-30T10:23:58.197Z,23.85
2024-04-30T10:24:58.868Z,23.85
2024-04-30T10:25:59.468Z,23.88
2024-04-30T10:27:00.241Z,23.92
2024-04-30T10:28:00.970Z,23.92
2024-04-30T10:29:01.669Z,23.94
2024-04-30T10:30:02.251Z,23.88
2024-04-30T10:31:02.830Z,23.89
2024-04-30T10:32:03.427Z,23.89
2024-04-30T10:33:04.228Z,23.94
2024-04-30T10:34:04.747Z,23.99
2024-04-30T10:35:05.256Z,24.06
2024-04-30T10:36:05.941Z,24.04
2024-04-30T10:37:06.660Z,24.06
2024-04-30T10:38:07.411Z,24.11
2024-04-30T10:39:08.011Z,24.13
2024-04-30T10:40:08.724Z,24.21
2024-04-30T10:41:09.323Z,24.32
2024-04-30T10:42:10.065Z,24.43
2024-04-30T10:43:10.678Z,24.56
2024-04-30T10:44:11.346Z,24.65
2024-04-30T10:45:11.946Z,24.71
2024-04-30T10:46:12.538Z,24.84
2024-04-30T10:47:13.179Z,24.85
2024-04-30T10:48:13.776Z,24.97
2024-04-30T10:49:14.376Z,25.15
2024-04-30T10:50:18.980Z,25.34
2024-04-30T10:51:16.505Z,25.44
2024-04-30T10:52:16.140Z,25.89
2024-04-30T10:53:16.811Z,26.42
2024-04-30T10:54:17.625Z,26.82
2024-04-30T10:55:18.299Z,26.97
2024-04-30T10:56:18.929Z,27.28
2024-04-30T10:57:19.505Z,27.60
2024-04-30T10:58:20.279Z,27.97
2024-04-30T10:59:20.963Z,28.19
2024-04-30T11:00:21.531Z,28.43
2024-04-30T11:01:22.224Z,28.53
2024-04-30T11:02:22.926Z,28.68
2024-04-30T11:03:23.687Z,28.77
2024-04-30T11:04:24.422Z,28.92
2024-04-30T11:05:25.107Z,29.00
2024-04-30T11:06:25.673Z,29.07
2024-04-30T11:07:26.248Z,29.05
2024-04-30T11:08:26.924Z,28.96
2024-04-30T11:09:28.580Z,28.75
2024-04-30T11:10:28.325Z,28.55
2024-04-30T11:11:28.855Z,28.41
2024-04-30T11:12:29.439Z,28.22
2024-04-30T11:13:30.102Z,28.16
2024-04-30T11:14:30.648Z,27.91
2024-04-30T11:15:31.352Z,27.76
2024-04-30T11:16:31.967Z,27.76
2024-04-30T11:17:32.793Z,27.88
2024-04-30T11:18:33.682Z,27.97
2024-04-30T11:19:34.149Z,27.97
2024-04-30T11:20:34.696Z,27.88
2024-04-30T11:21:35.532Z,28.00
2024-04-30T11:22:36.255Z,28.12
2024-04-30T11:23:36.800Z,28.23
2024-04-30T11:24:37.400Z,28.34
2024-04-30T11:25:37.996Z,28.33
2024-04-30T11:26:38.583Z,28.20
2024-04-30T11:27:39.283Z,28.06
2024-04-30T11:28:40.202Z,28.13
2024-04-30T11:29:40.905Z,28.22
2024-04-30T11:30:41.231Z,28.30
2024-04-30T11:31:41.889Z,28.40
2024-04-30T11:32:42.513Z,28.47
2024-04-30T11:33:43.064Z,28.67
2024-04-30T11:34:43.788Z,28.82
2024-04-30T11:35:44.239Z,28.86
2024-04-30T11:36:44.825Z,28.90
2024-04-30T11:37:45.640Z,28.96
2024-04-30T11:38:46.315Z,29.10
2024-04-30T11:39:46.892Z,29.30
2024-04-30T11:40:47.483Z,29.34
2024-04-30T11:41:52.329Z,29.46
2024-04-30T11:42:48.698Z,29.37
2024-04-30T11:43:49.358Z,29.24
2024-04-30T11:44:49.896Z,29.25
2024-04-30T11:45:50.575Z,29.22
2024-04-30T11:46:51.299Z,29.25
2024-04-30T11:47:52.074Z,29.30
2024-04-30T11:48:52.675Z,29.42
2024-04-30T11:49:53.243Z,29.53
2024-04-30T11:50:53.821Z,29.57
2024-04-30T11:51:54.578Z,29.49
2024-04-30T11:52:55.443Z,29.55
2024-04-30T11:53:55.857Z,29.59
2024-04-30T11:54:56.620Z,29.65
2024-04-30T11:55:57.276Z,29.84
2024-04-30T11:56:57.972Z,30.02
2024-04-30T11:57:58.529Z,30.18
2024-04-30T11:58:59.104Z,30.31
2024-04-30T11:59:59.723Z,30.21
2024-04-30T12:01:00.613Z,30.11
2024-04-30T12:02:01.283Z,30.14
2024-04-30T12:03:01.892Z,30.21
2024-04-30T12:04:02.360Z,30.21
2024-04-30T12:05:03.243Z,30.35
2024-04-30T12:06:03.680Z,30.46
2024-04-30T12:07:04.417Z,30.52
2024-04-30T12:08:05.160Z,30.74
2024-04-30T12:09:05.694Z,30.91
2024-04-30T12:10:06.492Z,31.05
2024-04-30T12:11:07.115Z,31.23
2024-04-30T12:12:07.654Z,31.28
2024-04-30T12:13:08.256Z,31.44
2024-04-30T12:14:08.871Z,31.67
2024-04-30T12:15:09.646Z,31.93
2024-04-30T12:16:10.360Z,32.15
2024-04-30T12:17:11.030Z,32.34
2024-04-30T12:18:11.486Z,32.42
2024-04-30T12:19:12.109Z,32.49
2024-04-30T12:20:12.834Z,32.53
2024-04-30T12:21:13.382Z,32.61
2024-04-30T12:22:14.020Z,32.75
2024-04-30T12:23:14.606Z,32.63
2024-04-30T12:24:15.203Z,32.61
2024-04-30T12:25:16.071Z,32.49
2024-04-30T12:26:16.740Z,32.51
2024-04-30T12:27:17.343Z,32.49
2024-04-30T12:28:17.933Z,32.57
2024-04-30T12:29:18.531Z,32.71
2024-04-30T12:30:19.225Z,32.81
2024-04-30T12:31:19.832Z,32.75
2024-04-30T12:32:20.449Z,32.75
2024-04-30T12:33:21.366Z,32.82
2024-04-30T12:34:22.090Z,33.04
2024-04-30T12:35:22.663Z,33.29
2024-04-30T12:36:23.370Z,33.48
2024-04-30T12:37:23.998Z,33.69
2024-04-30T12:38:24.559Z,33.85
2024-04-30T12:39:25.217Z,34.02
2024-04-30T12:40:25.810Z,34.13
2024-04-30T12:41:26.504Z,34.24
2024-04-30T12:42:27.129Z,34.28
2024-04-30T12:43:27.736Z,34.28
2024-04-30T12:44:28.431Z,34.00
2024-04-30T12:45:29.026Z,33.75
2024-04-30T12:46:29.625Z,33.61
2024-04-30T12:47:30.201Z,33.42
2024-04-30T12:48:30.858Z,33.44
2024-04-30T12:49:31.407Z,33.58
2024-04-30T12:50:32.232Z,33.77
2024-04-30T12:51:32.932Z,33.92
2024-04-30T12:52:33.640Z,33.97
2024-04-30T12:53:34.131Z,34.06
2024-04-30T12:54:34.719Z,34.07
2024-04-30T12:55:35.674Z,34.24
2024-04-30T12:56:35.893Z,34.25
2024-04-30T12:57:36.547Z,34.18
2024-04-30T12:58:37.354Z,34.21
2024-04-30T12:59:37.948Z,34.07
2024-04-30T13:00:38.534Z,33.84
2024-04-30T13:01:39.286Z,33.61